PST,Max TemperatureF,Mean TemperatureF,Min TemperatureF,Max Dew PointF,MeanDew PointF,Min DewpointF,Max Humidity, Mean Humidity, Min Humidity, Max Sea Level PressureIn, Mean Sea Level PressureIn, Min Sea Level PressureIn, Max VisibilityMiles, Mean VisibilityMiles, Min VisibilityMiles, Max Wind SpeedMPH, Mean Wind SpeedMPH, Max Gust SpeedMPH,PrecipitationIn, CloudCover, Events, WindDirDegrees
2012-11-1,60,56,52,54,52,46,93,80,67,30.05,29.90,29.74,10,8,2,30,14,38,0.30,7,Rain,172
2012-11-2,57,52,47,54,51,47,100,93,86,30.04,30.01,29.98,10,8,4,7,1,24,0.12,6,Rain,148
2012-11-3,64,59,53,57,55,53,100,89,78,30.18,30.08,29.99,10,8,2,15,6,20,0.14,8,Rain,165
2012-11-4,73,65,57,59,57,56,97,77,57,30.33,30.26,30.18,10,10,10,18,8,23,0.00,5,,180
2012-11-5,63,57,51,58,56,52,100,86,72,30.34,30.26,30.12,10,9,2,12,3,14,T,7,Rain,11
2012-11-6,61,57,53,56,54,49,100,88,75,30.12,30.07,30.04,10,6,1,15,4,20,0.02,8,Rain,237
2012-11-7,54,48,41,47,44,41,100,86,71,30.19,30.11,29.92,10,10,4,13,2,18,0.01,5,Rain,178
2012-11-8,48,43,38,43,40,37,100,93,86,29.92,29.82,29.76,10,4,0,7,1,7,0.02,6,Fog-Rain,28
2012-11-9,50,43,35,43,39,36,100,83,66,29.94,29.88,29.84,10,5,0,14,2,16,0.27,6,Fog-Rain,195
2012-11-10,47,41,34,38,37,35,100,85,70,30.22,30.08,29.94,10,7,0,13,3,15,0.00,7,Fog,188
2012-11-11,50,44,38,45,40,36,93,80,66,30.25,30.22,30.18,10,10,7,18,10,24,0.21,8,Rain,162
2012-11-12,52,50,47,51,48,45,96,93,89,30.25,30.20,30.14,10,8,2,23,10,31,0.59,7,Rain,165
2012-11-13,54,49,44,50,47,45,100,92,83,30.24,30.20,30.15,10,6,0,9,3,10,0.00,6,Fog,153
2012-11-14,56,50,43,50,47,44,100,89,77,30.30,30.24,30.19,10,6,2,10,4,15,0.05,7,Rain,351
2012-11-15,53,45,37,45,41,37,100,84,68,30.17,30.02,29.94,10,8,1,14,4,20,0.00,4,,75
2012-11-16,53,47,40,48,44,39,100,89,77,29.94,29.85,29.72,10,5,1,8,1,10,0.00,6,,130
2012-11-17,54,48,41,52,45,40,100,92,83,29.85,29.68,29.57,10,7,1,21,10,32,1.22,7,Rain,171
2012-11-18,52,48,44,47,44,42,93,82,71,29.85,29.76,29.64,10,9,6,31,14,44,0.75,8,Rain,173
2012-11-19,58,54,50,54,50,47,93,83,72,29.74,29.63,29.56,10,7,1,29,18,40,1.92,8,Rain,187
2012-11-20,57,51,45,52,47,43,96,84,72,29.75,29.68,29.60,10,8,3,26,13,38,1.12,7,Rain,166
2012-11-21,50,44,37,45,41,37,100,89,77,30.32,29.98,29.63,10,9,4,18,10,28,0.51,5,Rain,191
2012-11-22,48,41,34,41,37,34,100,86,71,30.35,30.31,30.26,10,5,0,9,1,14,0.00,3,Fog,2
2012-11-23,52,44,35,50,43,36,100,87,74,30.27,30.20,30.12,10,8,1,20,9,26,0.57,6,Rain,152
2012-11-24,52,45,37,52,45,37,100,89,77,30.25,30.22,30.16,10,6,0,14,2,16,0.15,7,Fog-Rain,317
2012-11-25,43,37,31,40,38,32,100,91,82,30.28,30.22,30.08,10,6,0,16,5,21,0.00,6,Fog,351
2012-11-26,52,40,27,39,33,28,100,77,54,30.10,30.06,30.01,10,8,2,7,2,24,0.00,0,Fog,167
2012-11-27,46,39,32,38,35,32,100,85,70,30.07,30.02,29.87,10,6,1,3,2,6,0.00,3,Fog,349
2012-11-28,48,41,34,43,39,34,100,88,76,29.86,29.70,29.62,10,8,1,9,2,12,0.02,5,Rain,206
2012-11-29,54,45,35,48,43,36,100,86,71,29.67,29.60,29.47,10,7,0,30,7,39,0.26,6,Fog-Rain,169
2012-11-30,58,54,49,50,48,45,89,81,72,29.53,29.48,29.42,10,9,4,30,15,43,0.60,7,Rain,173